• Join FlightAware (Why Join?)
  • Login
  • US Flag 
02:37PM EDT


 

Airport Tracker/Info


-or-


 

Live Flight TrackerFlight Track Log ✈ UAL4457 ✈ 26-Apr-2013 ✈ KLEX - KIAH

Flight Track Log - Related Links

Times and Time Zones

All times are in EDT time to prevent confusion due to time zone crossing. See the UAL4457 flight status page for this flight to view local times or setup timezone preferences in your user account.

Time Position Orientation Groundspeed Altitude Reporting Facility
EDT Latitude Longitude Course Direction KTS MPH feet Rate Location/Type
06:06PM 38.0661 -84.4925 106° East 230 265 7,000  Level Indianapolis Center
06:07PM 37.8675 -84.6357 241° Southwest  Level FlightAware Approximate
06:07PM 38.0122 -84.5431 216° Southwest 258 297 10,000  Level Indianapolis Center
06:08PM 37.8194 -84.7439 241° Southwest  Level FlightAware Approximate
06:08PM 37.9694 -84.6194 235° Southwest 267 307 13,100  Level Indianapolis Center
06:09PM 37.7594 -84.8419 234° Southwest  Level FlightAware Approximate
06:09PM 37.9172 -84.7125 235° Southwest 275 316 16,100  Level Indianapolis Center
06:10PM 37.7009 -84.9503 239° Southwest  Level FlightAware Approximate
06:10PM 37.8703 -84.7961 235° Southwest 289 333 18,100  Level Indianapolis Center
06:11PM 37.8228 -84.8817 235° Southwest 295 339 19,800 1,500 Climbing Indianapolis Center
06:12PM 37.7700 -84.9758 235° Southwest 320 368 21,300 1,500 Climbing Indianapolis Center
06:13PM 37.7142 -85.0761 235° Southwest 343 395 22,900 1,620 Climbing Indianapolis Center
06:14PM 37.6564 -85.1794 235° Southwest 355 409 24,700 1,980 Climbing Indianapolis Center
06:15PM 37.5897 -85.2964 234° Southwest 352 405 27,100 1,980 Climbing Indianapolis Center
06:16PM 37.5342 -85.3944 234° Southwest 346 398 28,800 1,440 Climbing Indianapolis Center
06:17PM 37.4792 -85.4919 235° Southwest 343 395 30,100 1,020 Climbing Indianapolis Center
06:18PM 37.4161 -85.6011 234° Southwest 354 407 31,000 420 Climbing Indianapolis Center
06:19PM 37.3528 -85.7108 234° Southwest 381 438 31,000  Level Indianapolis Center
06:20PM 37.3258 -85.7611 236° Southwest 385 443 31,000 840 Level Memphis Center
06:21PM 37.2650 -85.8639 233° Southwest 385 443 32,200 1,320 Climbing Memphis Center
06:21PM 37.2147 -85.9511 234° Southwest 397 457 33,300 1,440 Climbing Indianapolis Center
06:22PM 37.1525 -86.0592 234° Southwest 384 442 34,700 1,140 Climbing Indianapolis Center
06:24PM 37.0761 -86.1761 231° Southwest 379 436 36,000 540 Climbing Memphis Center
06:25PM 36.9869 -86.2586 216° Southwest 387 445 36,000  Level Memphis Center
06:26PM 36.8981 -86.3411 217° Southwest 404 465 36,000  Level Memphis Center
06:27PM 36.8008 -86.4314 217° Southwest 409 471 36,000  Level Memphis Center
06:28PM 36.7139 -86.5133 217° Southwest 404 465 36,000  Level Memphis Center
06:29PM 36.6267 -86.5950 217° Southwest 404 465 36,000  Level Memphis Center
06:30PM 36.5375 -86.6767 216° Southwest 404 465 36,000  Level Memphis Center
06:31PM 36.4483 -86.7581 216° Southwest 404 465 36,000  Level Memphis Center
06:32PM 36.3525 -86.8422 215° Southwest 409 471 36,000  Level Memphis Center
06:33PM 36.2631 -86.9233 216° Southwest 409 471 36,000  Level Memphis Center
06:34PM 36.1819 -87.0039 219° Southwest 427 491 36,000  Level Memphis Center
06:35PM 36.0864 -87.0900 216° Southwest 411 473 36,000  Level Memphis Center
06:36PM 35.9967 -87.1706 216° Southwest 401 461 36,000  Level Memphis Center
06:37PM 35.9069 -87.2536 217° Southwest 401 461 36,000  Level Memphis Center
06:38PM 35.8153 -87.3339 215° Southwest 406 467 36,000  Level Memphis Center
06:39PM 35.7214 -87.4217 217° Southwest 412 474 36,000  Level Memphis Center
06:40PM 35.6272 -87.5042 215° Southwest 412 474 36,000  Level Memphis Center
06:41PM 35.5333 -87.5889 216° Southwest 422 486 36,000  Level Memphis Center
06:42PM 35.4372 -87.6736 216° Southwest 422 486 36,000  Level Memphis Center
06:43PM 35.3553 -87.7475 216° Southwest 422 486 36,000  Level Memphis Center
06:44PM 35.2569 -87.8319 215° Southwest 422 486 36,000  Level Memphis Center
06:45PM 35.1647 -87.9161 217° Southwest 422 486 36,000  Level Memphis Center
06:46PM 35.0642 -88.0003 214° Southwest 411 473 36,000  Level Memphis Center
06:47PM 34.9717 -88.0814 216° Southwest 416 479 36,000  Level Memphis Center
06:48PM 34.8753 -88.1625 215° Southwest 416 479 36,000  Level Memphis Center
06:49PM 34.7953 -88.2431 220° Southwest 423 487 36,000  Level Memphis Center
06:50PM 34.7028 -88.3236 216° Southwest 428 493 36,000  Level Memphis Center
06:51PM 34.6081 -88.4042 215° Southwest 423 487 36,000  Level Memphis Center
06:52PM 34.5092 -88.4869 215° Southwest 423 487 36,000  Level Memphis Center
06:53PM 34.4122 -88.5722 216° Southwest 423 487 36,000  Level Memphis Center
06:54PM 34.3133 -88.6572 215° Southwest 428 493 36,000  Level Memphis Center
06:55PM 34.2164 -88.7419 216° Southwest 428 493 36,000  Level Memphis Center
06:56PM 34.1172 -88.8242 214° Southwest 434 499 36,000  Level Memphis Center
06:57PM 34.0078 -88.9114 213° Southwest 434 499 36,000  Level Memphis Center
06:58PM 33.9106 -88.9956 216° Southwest 444 511 36,000  Level Memphis Center
06:59PM 33.8114 -89.0797 215° Southwest 444 511 36,000  Level Memphis Center
07:00PM 33.7264 -89.1583 218° Southwest 444 511 36,000  Level Memphis Center
07:01PM 33.6292 -89.2419 216° Southwest 439 505 36,000  Level Memphis Center
07:02PM 33.5317 -89.3206 214° Southwest 439 505 36,000  Level Memphis Center
07:03PM 33.4344 -89.4039 216° Southwest 439 505 36,000  Level Memphis Center
07:04PM 33.3389 -89.4819 214° Southwest 439 505 36,000  Level Memphis Center
07:05PM 33.2517 -89.5550 215° Southwest 434 499 36,000  Level Memphis Center
07:06PM 33.1375 -89.6503 215° Southwest 429 494 36,000  Level Memphis Center
07:07PM 33.0439 -89.7278 215° Southwest 429 494 36,000  Level Memphis Center
07:08PM 32.9525 -89.8053 215° Southwest 429 494 36,000  Level Memphis Center
07:09PM 32.8567 -89.8825 214° Southwest 423 487 36,000  Level Memphis Center
07:10PM 32.7589 -89.9619 214° Southwest 423 487 36,000  Level Memphis Center
07:11PM 32.6672 -90.0389 215° Southwest 423 487 36,000  Level Memphis Center
07:12PM 32.5736 -90.1133 214° Southwest 423 487 36,000  Level Memphis Center
07:13PM 32.4881 -90.2022 221° Southwest 418 481 36,000  Level Memphis Center
07:14PM 32.4297 -90.3156 239° Southwest 400 460 36,000 -300 Level Memphis Center
07:15PM 32.3733 -90.4189 237° Southwest 395 455 35,500 -540 Descending Memphis Center
07:16PM 32.3189 -90.5244 239° Southwest 390 449 35,000 -180 Descending Memphis Center
07:18PM 32.2183 -90.7186 239° Southwest 361 415 35,000  Level Houston Center
07:19PM 32.1656 -90.8203 239° Southwest 390 449 35,000  Level Houston Center
07:20PM 32.0936 -90.9561 238° Southwest 407 468 35,000  Level Houston Center
07:21PM 32.0331 -91.0714 238° Southwest 413 475 35,000  Level Houston Center
07:22PM 31.9708 -91.1839 237° Southwest 410 472 35,000  Level Houston Center
07:23PM 31.9114 -91.2986 239° Southwest 410 472 35,000  Level Houston Center
07:24PM 31.8500 -91.4103 237° Southwest 407 468 35,000  Level Houston Center
07:25PM 31.7897 -91.5242 238° Southwest 408 470 35,000  Level Houston Center
07:26PM 31.7164 -91.6597 238° Southwest 409 471 35,000  Level Houston Center
07:27PM 31.6564 -91.7719 238° Southwest 406 467 35,000  Level Houston Center
07:28PM 31.5944 -91.8844 237° Southwest 408 470 35,000  Level Houston Center
07:29PM 31.5342 -91.9967 238° Southwest 407 468 35,000  Level Houston Center
07:30PM 31.4689 -92.1097 236° Southwest 413 475 35,000  Level Houston Center
07:31PM 31.4078 -92.2203 237° Southwest 410 472 35,000  Level Houston Center
07:32PM 31.3342 -92.3536 237° Southwest 407 468 35,000  Level Houston Center
07:33PM 31.2739 -92.4656 238° Southwest 407 468 35,000  Level Houston Center
07:34PM 31.2139 -92.5764 238° Southwest 406 467 35,000  Level Houston Center
07:35PM 31.1517 -92.6872 237° Southwest 407 468 35,000  Level Houston Center
07:36PM 31.0900 -92.7972 237° Southwest 406 467 35,000  Level Houston Center
07:37PM 31.0292 -92.9064 237° Southwest 403 464 35,000 -120 Level Houston Center
07:38PM 30.9711 -93.0100 237° Southwest 385 443 34,800 -600 Descending Houston Center
07:39PM 30.9042 -93.1294 237° Southwest 369 425 33,800 -1,380 Descending Houston Center
07:40PM 30.8456 -93.2319 236° Southwest 380 437 32,000 -1,800 Descending Houston Center
07:41PM 30.7864 -93.3372 237° Southwest 388 447 30,100 -1,800 Descending Houston Center
07:42PM 30.7258 -93.4442 237° Southwest 396 456 28,300 -1,860 Descending Houston Center
07:43PM 30.6625 -93.5553 236° Southwest 409 471 26,300 -2,160 Descending Houston Center
07:44PM 30.5867 -93.6883 237° Southwest 417 480 23,900 -2,220 Descending Houston Center
07:45PM 30.5236 -93.7986 236° Southwest 416 479 21,800 -2,040 Descending Houston Center
07:46PM 30.4617 -93.9056 236° Southwest 406 467 19,800 -2,040 Descending Houston Center
07:47PM 30.4022 -94.0078 236° Southwest 380 437 17,800 -2,040 Descending Houston Center
07:49PM 30.3397 -94.1181 237° Southwest 362 417 15,700 -2,040 Descending Houston Center
07:50PM 30.2822 -94.2156 236° Southwest 351 404 13,500 -1,740 Descending Houston Center
07:51PM 30.2267 -94.3122 236° Southwest 338 389 12,200 -840 Descending Houston Center
07:52PM 30.1897 -94.4067 246° West 324 373 11,900 -780 Descending Houston Center
07:53PM 30.1744 -94.5083 260° West 323 372 10,600 -960 Descending Houston Center
07:54PM 30.1572 -94.5989 258° West 298 343 10,000 -300 Descending Houston Center
07:55PM 30.1406 -94.6958 259° West 306 352 10,000  Level Houston Center
07:56PM 30.1228 -94.7975 259° West 297 342 10,000  Level Houston Center
07:57PM 30.1075 -94.8814 258° West 263 303 10,000 -600 Level Houston Center
07:58PM 30.1053 -94.9664 268° West 270 311 8,800 -1,380 Descending Houston Center
07:59PM 30.1053 -95.0581 270° West 271 312 7,200 -1,320 Descending Houston Center
08:00PM 30.1053 -95.1475 270° West 253 291 6,000 -600 Descending Houston Center
08:01PM 30.1064 -95.2269 271° West 231 266 6,000  Level Houston Center
08:02PM 30.1058 -95.2900 269° West 229 264 6,000 -180 Level Houston Center
08:03PM 30.1064 -95.3633 271° West 224 258 5,700 -1,320 Descending Houston Center
08:04PM 30.1064 -95.4322 270° West 214 246 3,400 -1,920 Descending Houston Center
08:05PM 30.0817 -95.4861 242° Southwest 194 223 2,100 -1,320 Descending Houston Center